< Typhoon 195916 1959 Season Typhoon 195918 >
Typhoon 195917 (BABS)
General InformationTrack Information on Google Maps || NewsDisaster Info.ResourceGoogle EarthGE AnimationAtom FeedGeoJSON
Detalied Best Track (Time Zone = UTC)
Year Month Day Hour Lat. Long. Pressure (hPa) Wind (kt) Class Image Chart
1959 10 5 00 15.0 119.5 1004 0 2 -- Chart
1959 10 5 06 15.0 118.5 1004 0 2 -- Chart
1959 10 5 12 14.8 118.2 1004 0 2 -- Chart
1959 10 5 18 14.5 119.0 1004 0 2 -- Chart
1959 10 6 00 14.7 119.7 1004 0 2 -- Chart
1959 10 6 06 15.0 120.0 1004 0 2 -- Chart
1959 10 6 12 15.5 120.0 1004 0 2 -- Chart
1959 10 6 18 16.5 119.3 1004 0 2 -- Chart
1959 10 7 00 17.5 118.8 1006 0 2 -- Chart
1959 10 7 06 18.2 118.5 1008 0 2 -- Chart
1959 10 7 12 18.6 118.3 1008 0 2 -- Chart
1959 10 7 18 19.0 118.2 1008 0 2 -- Chart
1959 10 8 00 19.6 118.0 1008 0 2 -- Chart
1959 10 8 06 20.3 117.8 1006 0 9 -- Chart
1959 10 8 12 21.0 118.0 1004 0 9 -- Chart
1959 10 8 18 21.3 118.7 1004 0 9 -- Chart
1959 10 9 00 21.5 119.6 1004 0 9 -- Chart
1959 10 9 06 21.7 120.5 1004 0 9 -- Chart
1959 10 9 12 22.3 121.3 1006 0 2 -- Chart
1959 10 9 18 22.7 122.4 1004 0 2 -- Chart
1959 10 10 00 23.0 124.2 1004 0 2 -- Chart
1959 10 10 06 24.0 126.0 1004 0 6 -- Chart
1959 10 10 12 24.0 126.5 1006 0 6 -- Chart
Japan Meteorological Agency Best Track Data | Correction Date : 1989-06-01
< Typhoon 195916 1959 Season Typhoon 195918 >

Help